sensor_id;sensor_type;location;lat;lon;timestamp;pressure;altitude;pressure_sealevel;temperature;humidity
31005;BME280;17676;52.254;4.490;2024-03-23T00:51:50;101138.66;;;8.30;100.00
31005;BME280;17676;52.254;4.490;2024-03-23T00:54:16;101136.16;;;8.43;100.00
31005;BME280;17676;52.254;4.490;2024-03-23T00:56:42;101135.88;;;8.38;100.00
31005;BME280;17676;52.254;4.490;2024-03-23T00:59:07;101140.06;;;8.40;100.00
31005;BME280;17676;52.254;4.490;2024-03-23T01:01:33;101134.41;;;8.35;100.00
31005;BME280;17676;52.254;4.490;2024-03-23T01:03:59;101138.84;;;8.43;100.00
31005;BME280;17676;52.254;4.490;2024-03-23T01:06:24;101140.16;;;8.47;100.00
31005;BME280;17676;52.254;4.490;2024-03-23T01:08:50;101088.81;;;8.11;100.00
31005;BME280;17676;52.254;4.490;2024-03-23T01:11:16;101128.81;;;8.37;100.00
31005;BME280;17676;52.254;4.490;2024-03-23T01:13:42;101135.16;;;8.44;100.00
31005;BME280;17676;52.254;4.490;2024-03-23T01:16:07;101134.75;;;8.47;100.00
31005;BME280;17676;52.254;4.490;2024-03-23T01:18:33;101126.38;;;8.42;100.00
31005;BME280;17676;52.254;4.490;2024-03-23T01:20:59;101133.84;;;8.40;100.00
31005;BME280;17676;52.254;4.490;2024-03-23T01:23:25;101132.16;;;8.39;100.00
31005;BME280;17676;52.254;4.490;2024-03-23T01:25:54;101096.47;;;8.37;100.00
31005;BME280;17676;52.254;4.490;2024-03-23T01:28:20;101124.97;;;8.60;100.00
31005;BME280;17676;52.254;4.490;2024-03-23T01:30:46;101140.88;;;8.70;100.00
31005;BME280;17676;52.254;4.490;2024-03-23T01:33:12;101131.09;;;8.69;100.00
31005;BME280;17676;52.254;4.490;2024-03-23T01:35:38;101127.03;;;8.58;100.00
31005;BME280;17676;52.254;4.490;2024-03-23T01:38:04;101126.09;;;8.51;100.00
31005;BME280;17676;52.254;4.490;2024-03-23T01:40:29;101109.56;;;8.40;100.00
31005;BME280;17676;52.254;4.490;2024-03-23T01:42:58;101087.44;;;8.30;100.00
31005;BME280;17676;52.254;4.490;2024-03-23T01:45:27;101116.06;;;8.45;100.00
31005;BME280;17676;52.254;4.490;2024-03-23T01:47:53;101078.97;;;8.33;100.00
31005;BME280;17676;52.254;4.490;2024-03-23T01:50:20;101106.19;;;8.52;100.00
31005;BME280;17676;52.254;4.490;2024-03-23T01:52:47;101115.69;;;8.48;100.00
31005;BME280;17676;52.254;4.490;2024-03-23T01:55:13;101117.75;;;8.46;100.00
31005;BME280;17676;52.254;4.490;2024-03-23T01:57:39;101094.78;;;8.36;100.00
31005;BME280;17676;52.254;4.490;2024-03-23T02:00:05;101106.88;;;8.40;100.00
31005;BME280;17676;52.254;4.490;2024-03-23T02:02:31;101098.38;;;8.43;100.00
31005;BME280;17676;52.254;4.490;2024-03-23T02:04:57;101077.78;;;8.21;100.00
31005;BME280;17676;52.254;4.490;2024-03-23T02:07:23;101108.25;;;8.50;100.00
31005;BME280;17676;52.254;4.490;2024-03-23T02:09:51;101095.31;;;8.46;100.00
31005;BME280;17676;52.254;4.490;2024-03-23T02:12:17;101089.41;;;8.36;100.00
31005;BME280;17676;52.254;4.490;2024-03-23T02:14:43;101099.41;;;8.42;100.00
31005;BME280;17676;52.254;4.490;2024-03-23T02:17:09;101093.66;;;8.45;100.00
31005;BME280;17676;52.254;4.490;2024-03-23T02:19:35;101086.97;;;8.41;100.00
31005;BME280;17676;52.254;4.490;2024-03-23T02:22:00;101090.69;;;8.40;100.00
31005;BME280;17676;52.254;4.490;2024-03-23T02:24:26;101070.91;;;8.33;100.00
31005;BME280;17676;52.254;4.490;2024-03-23T02:26:52;101037.53;;;8.05;100.00
31005;BME280;17676;52.254;4.490;2024-03-23T02:29:18;101048.13;;;8.21;100.00
31005;BME280;17676;52.254;4.490;2024-03-23T02:31:45;101072.09;;;8.30;100.00
31005;BME280;17676;52.254;4.490;2024-03-23T02:34:10;101025.06;;;8.04;100.00
31005;BME280;17676;52.254;4.490;2024-03-23T02:36:36;101060.22;;;8.25;100.00
31005;BME280;17676;52.254;4.490;2024-03-23T02:39:02;101066.13;;;8.20;100.00
31005;BME280;17676;52.254;4.490;2024-03-23T02:41:27;101060.41;;;8.23;100.00
31005;BME280;17676;52.254;4.490;2024-03-23T02:43:53;101042.44;;;8.16;100.00
31005;BME280;17676;52.254;4.490;2024-03-23T02:46:18;101060.38;;;8.38;100.00
31005;BME280;17676;52.254;4.490;2024-03-23T02:48:44;100994.56;;;8.18;100.00
31005;BME280;17676;52.254;4.490;2024-03-23T02:51:10;101055.78;;;8.53;100.00
31005;BME280;17676;52.254;4.490;2024-03-23T02:53:36;101054.25;;;8.44;100.00
31005;BME280;17676;52.254;4.490;2024-03-23T02:56:01;101022.25;;;8.41;100.00
31005;BME280;17676;52.254;4.490;2024-03-23T02:58:27;101052.56;;;8.78;100.00
31005;BME280;17676;52.254;4.490;2024-03-23T03:00:53;101053.38;;;8.79;100.00
31005;BME280;17676;52.254;4.490;2024-03-23T03:03:18;101054.84;;;8.81;100.00
31005;BME280;17676;52.254;4.490;2024-03-23T03:05:44;101057.16;;;8.84;100.00
31005;BME280;17676;52.254;4.490;2024-03-23T03:08:10;101037.91;;;8.66;100.00
31005;BME280;17676;52.254;4.490;2024-03-23T03:10:35;101053.78;;;8.76;100.00
31005;BME280;17676;52.254;4.490;2024-03-23T03:13:02;101041.75;;;8.78;100.00
31005;BME280;17676;52.254;4.490;2024-03-23T03:15:28;101049.25;;;8.62;100.00
31005;BME280;17676;52.254;4.490;2024-03-23T03:17:53;101041.44;;;8.52;100.00
31005;BME280;17676;52.254;4.490;2024-03-23T03:20:19;101031.03;;;8.49;100.00
31005;BME280;17676;52.254;4.490;2024-03-23T03:22:47;101044.75;;;8.48;100.00
31005;BME280;17676;52.254;4.490;2024-03-23T03:25:13;101041.38;;;8.46;100.00
31005;BME280;17676;52.254;4.490;2024-03-23T03:27:38;101040.63;;;8.52;100.00
31005;BME280;17676;52.254;4.490;2024-03-23T03:30:04;101038.19;;;8.57;100.00
31005;BME280;17676;52.254;4.490;2024-03-23T03:32:32;101018.16;;;8.45;100.00
31005;BME280;17676;52.254;4.490;2024-03-23T03:34:58;101004.78;;;8.37;100.00
31005;BME280;17676;52.254;4.490;2024-03-23T03:37:24;101034.84;;;8.55;100.00
31005;BME280;17676;52.254;4.490;2024-03-23T03:39:49;101036.13;;;8.59;100.00
31005;BME280;17676;52.254;4.490;2024-03-23T03:42:15;101011.28;;;8.42;100.00
31005;BME280;17676;52.254;4.490;2024-03-23T03:44:41;101028.56;;;8.48;100.00
31005;BME280;17676;52.254;4.490;2024-03-23T03:47:07;101025.97;;;8.40;100.00
31005;BME280;17676;52.254;4.490;2024-03-23T03:49:32;101019.09;;;8.23;100.00
31005;BME280;17676;52.254;4.490;2024-03-23T03:51:58;101018.19;;;8.16;100.00
31005;BME280;17676;52.254;4.490;2024-03-23T03:54:24;100995.31;;;8.12;100.00
31005;BME280;17676;52.254;4.490;2024-03-23T03:56:49;100991.69;;;8.05;100.00
31005;BME280;17676;52.254;4.490;2024-03-23T03:59:17;101001.19;;;8.01;100.00
31005;BME280;17676;52.254;4.490;2024-03-23T04:01:43;101009.06;;;8.17;100.00
31005;BME280;17676;52.254;4.490;2024-03-23T04:04:08;101013.41;;;8.32;100.00
31005;BME280;17676;52.254;4.490;2024-03-23T04:06:34;101016.31;;;8.31;100.00
31005;BME280;17676;52.254;4.490;2024-03-23T04:09:00;101017.59;;;8.35;100.00
31005;BME280;17676;52.254;4.490;2024-03-23T04:11:26;101001.81;;;8.32;100.00
31005;BME280;17676;52.254;4.490;2024-03-23T04:13:52;101012.03;;;8.57;100.00
31005;BME280;17676;52.254;4.490;2024-03-23T04:16:34;101007.13;;;8.61;100.00
31005;BME280;17676;52.254;4.490;2024-03-23T04:19:00;101008.34;;;8.58;100.00
31005;BME280;17676;52.254;4.490;2024-03-23T04:21:26;101002.81;;;8.66;100.00
31005;BME280;17676;52.254;4.490;2024-03-23T04:23:51;100995.53;;;8.67;100.00
31005;BME280;17676;52.254;4.490;2024-03-23T04:26:17;101002.88;;;8.52;100.00
31005;BME280;17676;52.254;4.490;2024-03-23T04:28:43;101000.38;;;8.50;100.00
31005;BME280;17676;52.254;4.490;2024-03-23T04:31:09;101003.63;;;8.46;100.00
31005;BME280;17676;52.254;4.490;2024-03-23T04:33:35;100985.22;;;8.35;100.00
31005;BME280;17676;52.254;4.490;2024-03-23T04:36:00;101006.69;;;8.43;100.00
31005;BME280;17676;52.254;4.490;2024-03-23T04:38:26;100999.00;;;8.40;100.00
31005;BME280;17676;52.254;4.490;2024-03-23T04:41:01;101001.72;;;8.40;100.00
31005;BME280;17676;52.254;4.490;2024-03-23T04:43:27;100992.84;;;8.46;100.00
31005;BME280;17676;52.254;4.490;2024-03-23T04:45:53;100974.38;;;8.28;100.00
31005;BME280;17676;52.254;4.490;2024-03-23T04:48:22;100961.56;;;8.16;100.00
31005;BME280;17676;52.254;4.490;2024-03-23T04:50:48;101001.81;;;8.32;100.00
31005;BME280;17676;52.254;4.490;2024-03-23T04:53:15;100987.59;;;8.23;100.00
31005;BME280;17676;52.254;4.490;2024-03-23T04:55:42;100967.59;;;8.18;100.00
31005;BME280;17676;52.254;4.490;2024-03-23T04:58:08;101019.69;;;8.54;100.00
31005;BME280;17676;52.254;4.490;2024-03-23T05:00:33;100957.19;;;8.15;100.00
31005;BME280;17676;52.254;4.490;2024-03-23T05:02:59;101005.03;;;8.42;100.00
31005;BME280;17676;52.254;4.490;2024-03-23T05:05:25;101009.47;;;8.49;100.00
31005;BME280;17676;52.254;4.490;2024-03-23T05:07:51;101008.72;;;8.55;100.00
31005;BME280;17676;52.254;4.490;2024-03-23T05:10:16;100995.16;;;8.49;100.00
31005;BME280;17676;52.254;4.490;2024-03-23T05:12:42;101013.66;;;8.52;100.00
31005;BME280;17676;52.254;4.490;2024-03-23T05:15:08;101005.66;;;8.58;100.00
31005;BME280;17676;52.254;4.490;2024-03-23T05:17:34;100984.34;;;8.28;100.00
31005;BME280;17676;52.254;4.490;2024-03-23T05:20:00;101006.06;;;8.41;100.00
31005;BME280;17676;52.254;4.490;2024-03-23T05:22:25;100970.09;;;8.19;100.00
31005;BME280;17676;52.254;4.490;2024-03-23T05:24:53;101014.78;;;8.43;100.00
31005;BME280;17676;52.254;4.490;2024-03-23T05:27:18;101018.50;;;8.42;100.00
31005;BME280;17676;52.254;4.490;2024-03-23T05:29:44;101011.50;;;8.26;100.00
31005;BME280;17676;52.254;4.490;2024-03-23T05:32:10;101013.72;;;8.23;100.00
31005;BME280;17676;52.254;4.490;2024-03-23T05:34:35;101002.56;;;8.26;100.00
31005;BME280;17676;52.254;4.490;2024-03-23T05:37:01;100986.75;;;8.08;100.00
31005;BME280;17676;52.254;4.490;2024-03-23T05:39:27;100978.75;;;8.15;100.00
31005;BME280;17676;52.254;4.490;2024-03-23T05:41:52;100953.16;;;7.90;100.00
31005;BME280;17676;52.254;4.490;2024-03-23T05:44:18;100950.72;;;8.09;100.00
31005;BME280;17676;52.254;4.490;2024-03-23T05:46:44;100941.16;;;7.92;100.00
31005;BME280;17676;52.254;4.490;2024-03-23T05:49:15;100990.47;;;8.22;100.00
31005;BME280;17676;52.254;4.490;2024-03-23T05:51:40;100976.16;;;8.07;100.00
31005;BME280;17676;52.254;4.490;2024-03-23T05:54:06;100992.16;;;8.23;100.00
31005;BME280;17676;52.254;4.490;2024-03-23T05:56:32;100994.34;;;8.34;100.00
31005;BME280;17676;52.254;4.490;2024-03-23T05:58:58;101000.59;;;8.20;100.00
31005;BME280;17676;52.254;4.490;2024-03-23T06:01:23;100992.88;;;8.17;100.00
31005;BME280;17676;52.254;4.490;2024-03-23T06:03:49;100997.16;;;8.26;100.00
31005;BME280;17676;52.254;4.490;2024-03-23T06:06:15;100997.91;;;8.20;100.00
31005;BME280;17676;52.254;4.490;2024-03-23T06:08:40;100997.91;;;8.20;100.00
31005;BME280;17676;52.254;4.490;2024-03-23T06:11:06;100997.53;;;8.23;100.00
31005;BME280;17676;52.254;4.490;2024-03-23T06:13:32;101004.22;;;8.27;100.00
31005;BME280;17676;52.254;4.490;2024-03-23T06:16:02;101006.91;;;8.27;100.00
31005;BME280;17676;52.254;4.490;2024-03-23T06:18:27;100993.19;;;8.22;100.00
31005;BME280;17676;52.254;4.490;2024-03-23T06:20:53;100975.16;;;8.22;100.00
31005;BME280;17676;52.254;4.490;2024-03-23T06:23:19;100984.28;;;8.21;100.00
31005;BME280;17676;52.254;4.490;2024-03-23T06:25:46;101001.41;;;8.20;100.00
31005;BME280;17676;52.254;4.490;2024-03-23T06:28:12;100979.84;;;8.20;100.00
31005;BME280;17676;52.254;4.490;2024-03-23T06:30:38;100971.06;;;8.12;100.00
31005;BME280;17676;52.254;4.490;2024-03-23T06:33:03;101002.72;;;8.39;100.00
31005;BME280;17676;52.254;4.490;2024-03-23T06:35:31;100988.59;;;8.37;100.00
31005;BME280;17676;52.254;4.490;2024-03-23T06:37:57;100987.19;;;8.41;100.00
31005;BME280;17676;52.254;4.490;2024-03-23T06:40:23;100998.59;;;8.43;100.00
31005;BME280;17676;52.254;4.490;2024-03-23T06:42:49;100969.00;;;8.49;100.00
31005;BME280;17676;52.254;4.490;2024-03-23T06:45:16;101003.13;;;8.78;100.00
31005;BME280;17676;52.254;4.490;2024-03-23T06:47:42;100995.94;;;8.64;100.00
31005;BME280;17676;52.254;4.490;2024-03-23T06:50:08;101007.38;;;8.87;100.00
31005;BME280;17676;52.254;4.490;2024-03-23T06:52:35;100985.16;;;8.85;100.00
31005;BME280;17676;52.254;4.490;2024-03-23T06:55:01;100994.53;;;8.89;100.00
31005;BME280;17676;52.254;4.490;2024-03-23T06:57:29;101000.44;;;8.78;100.00
31005;BME280;17676;52.254;4.490;2024-03-23T06:59:55;100996.69;;;8.79;100.00
31005;BME280;17676;52.254;4.490;2024-03-23T07:02:21;100983.09;;;8.66;100.00
31005;BME280;17676;52.254;4.490;2024-03-23T07:04:46;100973.28;;;8.58;100.00
31005;BME280;17676;52.254;4.490;2024-03-23T07:07:12;101003.91;;;8.93;100.00
31005;BME280;17676;52.254;4.490;2024-03-23T07:09:38;100992.22;;;8.86;100.00
31005;BME280;17676;52.254;4.490;2024-03-23T07:12:04;101001.97;;;8.87;100.00
31005;BME280;17676;52.254;4.490;2024-03-23T07:14:30;101000.13;;;8.66;100.00
31005;BME280;17676;52.254;4.490;2024-03-23T07:16:55;101006.09;;;8.62;100.00
31005;BME280;17676;52.254;4.490;2024-03-23T07:19:22;100983.47;;;8.63;100.00
31005;BME280;17676;52.254;4.490;2024-03-23T07:21:48;101003.53;;;8.96;100.00
31005;BME280;17676;52.254;4.490;2024-03-23T07:24:13;100966.41;;;8.77;100.00
31005;BME280;17676;52.254;4.490;2024-03-23T07:26:39;100966.50;;;8.90;100.00
31005;BME280;17676;52.254;4.490;2024-03-23T07:29:06;101001.84;;;9.43;100.00
31005;BME280;17676;52.254;4.490;2024-03-23T07:31:32;100993.50;;;9.38;100.00
31005;BME280;17676;52.254;4.490;2024-03-23T07:33:57;101000.19;;;9.21;100.00
31005;BME280;17676;52.254;4.490;2024-03-23T07:36:23;101002.28;;;9.19;100.00
31005;BME280;17676;52.254;4.490;2024-03-23T07:38:49;100991.81;;;9.10;100.00
31005;BME280;17676;52.254;4.490;2024-03-23T07:41:16;100984.63;;;8.96;100.00
31005;BME280;17676;52.254;4.490;2024-03-23T07:43:45;101004.28;;;9.11;100.00
31005;BME280;17676;52.254;4.490;2024-03-23T07:46:11;101009.47;;;9.40;100.00
31005;BME280;17676;52.254;4.490;2024-03-23T07:48:38;100986.75;;;9.28;100.00
31005;BME280;17676;52.254;4.490;2024-03-23T07:51:20;100999.94;;;9.44;100.00
31005;BME280;17676;52.254;4.490;2024-03-23T07:53:46;100846.44;;;8.52;100.00
31005;BME280;17676;52.254;4.490;2024-03-23T07:56:14;100944.50;;;9.48;100.00
31005;BME280;17676;52.254;4.490;2024-03-23T07:58:47;100999.59;;;9.81;100.00
31005;BME280;17676;52.254;4.490;2024-03-23T08:01:15;100996.78;;;9.68;100.00
31005;BME280;17676;52.254;4.490;2024-03-23T08:03:42;100995.09;;;9.60;100.00
31005;BME280;17676;52.254;4.490;2024-03-23T08:08:37;101001.53;;;9.59;100.00
31005;BME280;17676;52.254;4.490;2024-03-23T08:11:03;100996.78;;;9.68;100.00
31005;BME280;17676;52.254;4.490;2024-03-23T08:13:29;100997.69;;;9.20;100.00
31005;BME280;17676;52.254;4.490;2024-03-23T08:15:59;101006.69;;;9.27;100.00
31005;BME280;17676;52.254;4.490;2024-03-23T08:18:25;100966.94;;;9.48;100.00
31005;BME280;17676;52.254;4.490;2024-03-23T08:21:02;100982.06;;;10.11;100.00
31005;BME280;17676;52.254;4.490;2024-03-23T08:23:29;100986.56;;;10.45;100.00
31005;BME280;17676;52.254;4.490;2024-03-23T08:26:03;100990.25;;;10.24;100.00
31005;BME280;17676;52.254;4.490;2024-03-23T08:28:34;100990.13;;;10.04;100.00
31005;BME280;17676;52.254;4.490;2024-03-23T08:31:05;100956.31;;;10.15;100.00
31005;BME280;17676;52.254;4.490;2024-03-23T08:33:31;100981.28;;;10.17;100.00
31005;BME280;17676;52.254;4.490;2024-03-23T08:35:57;100996.06;;;9.87;100.00
31005;BME280;17676;52.254;4.490;2024-03-23T08:38:24;100987.41;;;9.98;100.00
31005;BME280;17676;52.254;4.490;2024-03-23T08:43:23;100984.38;;;11.13;100.00
31005;BME280;17676;52.254;4.490;2024-03-23T08:45:48;100979.34;;;11.49;100.00
31005;BME280;17676;52.254;4.490;2024-03-23T08:48:15;100965.22;;;10.95;100.00
31005;BME280;17676;52.254;4.490;2024-03-23T08:50:41;100957.28;;;11.39;100.00
31005;BME280;17676;52.254;4.490;2024-03-23T08:53:07;100980.81;;;11.71;100.00
31005;BME280;17676;52.254;4.490;2024-03-23T08:55:33;100945.16;;;10.57;100.00
31005;BME280;17676;52.254;4.490;2024-03-23T08:57:59;100993.13;;;11.28;100.00
31005;BME280;17676;52.254;4.490;2024-03-23T09:00:25;100989.34;;;11.55;100.00
31005;BME280;17676;52.254;4.490;2024-03-23T09:02:51;100991.22;;;11.48;100.00
31005;BME280;17676;52.254;4.490;2024-03-23T09:05:17;100992.25;;;11.73;100.00
31005;BME280;17676;52.254;4.490;2024-03-23T09:07:42;100992.28;;;11.60;100.00
31005;BME280;17676;52.254;4.490;2024-03-23T09:10:08;100981.44;;;10.82;100.00
31005;BME280;17676;52.254;4.490;2024-03-23T09:12:34;100994.53;;;10.59;100.00
31005;BME280;17676;52.254;4.490;2024-03-23T09:14:59;100985.53;;;10.52;100.00
31005;BME280;17676;52.254;4.490;2024-03-23T09:17:25;100994.38;;;11.65;100.00
31005;BME280;17676;52.254;4.490;2024-03-23T09:19:51;100989.00;;;12.59;100.00
31005;BME280;17676;52.254;4.490;2024-03-23T09:22:16;101001.38;;;11.92;100.00
31005;BME280;17676;52.254;4.490;2024-03-23T09:24:42;100983.97;;;11.16;100.00
31005;BME280;17676;52.254;4.490;2024-03-23T09:27:08;100977.50;;;10.78;100.00
31005;BME280;17676;52.254;4.490;2024-03-23T09:29:33;101002.50;;;11.39;100.00
31005;BME280;17676;52.254;4.490;2024-03-23T09:31:59;101001.88;;;11.50;100.00
31005;BME280;17676;52.254;4.490;2024-03-23T09:34:25;100950.78;;;11.53;100.00
31005;BME280;17676;52.254;4.490;2024-03-23T09:36:51;100968.69;;;12.31;100.00
31005;BME280;17676;52.254;4.490;2024-03-23T09:39:18;100991.53;;;13.65;100.00
31005;BME280;17676;52.254;4.490;2024-03-23T09:41:43;101002.44;;;14.37;100.00
31005;BME280;17676;52.254;4.490;2024-03-23T09:44:09;100995.63;;;14.76;100.00
31005;BME280;17676;52.254;4.490;2024-03-23T09:46:35;101004.81;;;13.31;100.00
31005;BME280;17676;52.254;4.490;2024-03-23T09:49:02;100984.16;;;12.24;100.00
31005;BME280;17676;52.254;4.490;2024-03-23T09:51:30;101002.69;;;11.76;100.00
31005;BME280;17676;52.254;4.490;2024-03-23T09:53:57;100998.09;;;11.70;100.00
31005;BME280;17676;52.254;4.490;2024-03-23T09:56:22;100982.28;;;11.61;100.00
31005;BME280;17676;52.254;4.490;2024-03-23T09:58:49;100949.78;;;12.49;100.00
31005;BME280;17676;52.254;4.490;2024-03-23T10:01:15;100987.72;;;12.24;100.00
31005;BME280;17676;52.254;4.490;2024-03-23T10:03:47;101000.91;;;12.89;100.00
31005;BME280;17676;52.254;4.490;2024-03-23T10:06:12;100985.66;;;13.19;100.00
31005;BME280;17676;52.254;4.490;2024-03-23T10:08:38;100974.72;;;12.70;100.00
31005;BME280;17676;52.254;4.490;2024-03-23T10:11:14;100968.94;;;12.60;100.00
31005;BME280;17676;52.254;4.490;2024-03-23T10:13:44;100986.19;;;11.84;100.00
31005;BME280;17676;52.254;4.490;2024-03-23T10:16:11;100982.06;;;11.04;100.00
31005;BME280;17676;52.254;4.490;2024-03-23T10:18:40;100991.91;;;12.20;100.00
31005;BME280;17676;52.254;4.490;2024-03-23T10:21:07;100993.47;;;12.78;100.00
31005;BME280;17676;52.254;4.490;2024-03-23T10:23:43;100997.94;;;12.22;100.00
31005;BME280;17676;52.254;4.490;2024-03-23T10:31:20;100979.50;;;12.37;100.00
31005;BME280;17676;52.254;4.490;2024-03-23T10:33:48;100958.91;;;11.53;100.00
31005;BME280;17676;52.254;4.490;2024-03-23T10:36:16;100988.53;;;11.35;100.00
31005;BME280;17676;52.254;4.490;2024-03-23T10:38:44;100980.16;;;11.69;100.00
31005;BME280;17676;52.254;4.490;2024-03-23T10:41:10;100972.91;;;12.20;100.00
31005;BME280;17676;52.254;4.490;2024-03-23T10:43:37;100987.47;;;13.01;100.00
31005;BME280;17676;52.254;4.490;2024-03-23T10:46:03;100994.47;;;13.64;100.00
31005;BME280;17676;52.254;4.490;2024-03-23T10:48:29;100993.88;;;13.37;100.00
31005;BME280;17676;52.254;4.490;2024-03-23T10:50:55;101002.97;;;13.00;100.00
31005;BME280;17676;52.254;4.490;2024-03-23T10:53:25;100998.41;;;12.88;100.00
31005;BME280;17676;52.254;4.490;2024-03-23T10:55:51;100969.44;;;12.82;100.00
31005;BME280;17676;52.254;4.490;2024-03-23T10:58:27;100986.56;;;13.98;100.00
31005;BME280;17676;52.254;4.490;2024-03-23T11:00:54;100984.00;;;13.18;100.00
31005;BME280;17676;52.254;4.490;2024-03-23T11:03:34;100980.13;;;12.33;100.00
31005;BME280;17676;52.254;4.490;2024-03-23T11:06:00;100963.97;;;12.13;100.00
31005;BME280;17676;52.254;4.490;2024-03-23T11:08:31;100965.06;;;11.99;100.00
31005;BME280;17676;52.254;4.490;2024-03-23T11:13:38;100972.22;;;11.81;100.00
31005;BME280;17676;52.254;4.490;2024-03-23T11:16:17;100982.34;;;12.86;100.00
31005;BME280;17676;52.254;4.490;2024-03-23T11:18:43;100978.59;;;12.81;100.00
31005;BME280;17676;52.254;4.490;2024-03-23T11:21:10;100962.44;;;12.92;100.00
31005;BME280;17676;52.254;4.490;2024-03-23T11:23:36;100985.84;;;12.93;100.00
31005;BME280;17676;52.254;4.490;2024-03-23T11:26:02;100968.47;;;12.70;100.00
31005;BME280;17676;52.254;4.490;2024-03-23T11:28:30;100965.09;;;13.05;100.00
31005;BME280;17676;52.254;4.490;2024-03-23T11:30:55;100964.84;;;13.92;100.00
31005;BME280;17676;52.254;4.490;2024-03-23T11:33:21;100947.59;;;13.62;100.00
31005;BME280;17676;52.254;4.490;2024-03-23T11:35:47;100961.09;;;13.75;100.00
31005;BME280;17676;52.254;4.490;2024-03-23T11:38:16;100963.09;;;13.79;100.00
31005;BME280;17676;52.254;4.490;2024-03-23T11:40:47;100962.81;;;13.02;100.00
31005;BME280;17676;52.254;4.490;2024-03-23T11:43:14;100928.03;;;12.55;100.00
31005;BME280;17676;52.254;4.490;2024-03-23T11:45:46;100955.59;;;13.14;100.00
31005;BME280;17676;52.254;4.490;2024-03-23T11:48:13;100937.78;;;12.94;100.00
31005;BME280;17676;52.254;4.490;2024-03-23T11:50:41;100777.88;;;12.30;100.00
31005;BME280;17676;52.254;4.490;2024-03-23T11:55:51;100893.19;;;12.77;100.00
31005;BME280;17676;52.254;4.490;2024-03-23T11:58:19;100917.63;;;12.52;100.00
31005;BME280;17676;52.254;4.490;2024-03-23T12:00:54;100939.34;;;12.52;100.00
31005;BME280;17676;52.254;4.490;2024-03-23T12:03:20;100898.75;;;12.88;100.00
31005;BME280;17676;52.254;4.490;2024-03-23T12:05:48;100939.38;;;13.50;100.00
31005;BME280;17676;52.254;4.490;2024-03-23T12:08:29;100951.78;;;13.64;100.00
31005;BME280;17676;52.254;4.490;2024-03-23T12:13:31;100925.72;;;13.75;100.00
31005;BME280;17676;52.254;4.490;2024-03-23T12:16:10;100924.53;;;13.28;100.00
31005;BME280;17676;52.254;4.490;2024-03-23T12:18:36;100913.25;;;12.14;100.00
31005;BME280;17676;52.254;4.490;2024-03-23T12:21:03;100911.66;;;12.68;100.00
31005;BME280;17676;52.254;4.490;2024-03-23T12:23:28;100937.81;;;12.87;100.00
31005;BME280;17676;52.254;4.490;2024-03-23T12:25:54;100891.09;;;13.03;100.00
31005;BME280;17676;52.254;4.490;2024-03-23T12:28:20;100908.50;;;12.71;100.00
31005;BME280;17676;52.254;4.490;2024-03-23T12:30:49;100926.06;;;11.94;100.00
31005;BME280;17676;52.254;4.490;2024-03-23T12:33:14;100923.59;;;12.30;100.00
31005;BME280;17676;52.254;4.490;2024-03-23T12:35:40;100908.06;;;12.43;100.00
31005;BME280;17676;52.254;4.490;2024-03-23T12:38:06;100929.25;;;11.84;100.00
31005;BME280;17676;52.254;4.490;2024-03-23T12:40:32;100925.59;;;11.27;100.00
31005;BME280;17676;52.254;4.490;2024-03-23T12:42:58;100905.84;;;10.87;100.00
31005;BME280;17676;52.254;4.490;2024-03-23T12:45:24;100922.06;;;11.13;100.00
31005;BME280;17676;52.254;4.490;2024-03-23T12:47:49;100925.16;;;11.36;100.00
31005;BME280;17676;52.254;4.490;2024-03-23T12:50:18;100877.69;;;11.01;100.00
31005;BME280;17676;52.254;4.490;2024-03-23T12:52:43;100921.13;;;11.58;100.00
31005;BME280;17676;52.254;4.490;2024-03-23T12:55:09;100906.25;;;11.93;100.00
31005;BME280;17676;52.254;4.490;2024-03-23T12:57:35;100913.13;;;12.33;100.00
31005;BME280;17676;52.254;4.490;2024-03-23T13:00:01;100887.22;;;12.37;100.00
31005;BME280;17676;52.254;4.490;2024-03-23T13:02:28;100913.22;;;12.20;100.00
31005;BME280;17676;52.254;4.490;2024-03-23T13:04:54;100886.84;;;11.96;100.00
31005;BME280;17676;52.254;4.490;2024-03-23T13:07:22;100901.50;;;11.82;100.00
31005;BME280;17676;52.254;4.490;2024-03-23T13:09:50;100904.94;;;12.02;100.00
31005;BME280;17676;52.254;4.490;2024-03-23T13:12:16;100873.53;;;11.88;100.00
31005;BME280;17676;52.254;4.490;2024-03-23T13:14:44;100898.28;;;11.98;100.00
31005;BME280;17676;52.254;4.490;2024-03-23T13:17:10;100894.28;;;11.63;100.00
31005;BME280;17676;52.254;4.490;2024-03-23T13:19:36;100898.00;;;11.62;100.00
31005;BME280;17676;52.254;4.490;2024-03-23T13:22:02;100904.72;;;11.47;100.00
31005;BME280;17676;52.254;4.490;2024-03-23T13:24:29;100879.19;;;11.80;100.00
31005;BME280;17676;52.254;4.490;2024-03-23T13:26:55;100887.91;;;11.95;100.00
31005;BME280;17676;52.254;4.490;2024-03-23T13:29:22;100875.34;;;12.01;100.00
31005;BME280;17676;52.254;4.490;2024-03-23T13:31:49;100866.91;;;11.78;100.00
31005;BME280;17676;52.254;4.490;2024-03-23T13:34:15;100877.28;;;11.87;100.00
31005;BME280;17676;52.254;4.490;2024-03-23T13:36:42;100876.97;;;12.08;100.00
31005;BME280;17676;52.254;4.490;2024-03-23T13:39:09;100857.84;;;11.90;100.00
31005;BME280;17676;52.254;4.490;2024-03-23T13:41:42;100864.75;;;11.86;100.00
31005;BME280;17676;52.254;4.490;2024-03-23T13:44:08;100841.16;;;11.93;100.00
31005;BME280;17676;52.254;4.490;2024-03-23T13:46:41;100862.31;;;11.72;100.00
31005;BME280;17676;52.254;4.490;2024-03-23T13:49:29;100829.66;;;11.60;100.00
31005;BME280;17676;52.254;4.490;2024-03-23T13:51:57;100863.22;;;12.03;100.00